sensor_id;sensor_type;location;lat;lon;timestamp;pressure;altitude;pressure_sealevel;temperature;humidity
44751;BME280;30477;48.224;11.470;2023-03-26T00:00:40;95602.63;;;7.84;61.29
44751;BME280;30477;48.224;11.470;2023-03-26T00:03:08;95596.66;;;7.84;61.07
44751;BME280;30477;48.224;11.470;2023-03-26T00:05:35;95599.63;;;7.89;61.06
44751;BME280;30477;48.224;11.470;2023-03-26T00:08:01;95597.06;;;7.89;60.86
44751;BME280;30477;48.224;11.470;2023-03-26T00:10:26;95598.03;;;7.88;60.57
44751;BME280;30477;48.224;11.470;2023-03-26T00:12:52;95598.44;;;7.83;60.70
44751;BME280;30477;48.224;11.470;2023-03-26T00:15:17;95590.16;;;7.80;60.77
44751;BME280;30477;48.224;11.470;2023-03-26T00:17:43;95596.09;;;7.80;60.66
44751;BME280;30477;48.224;11.470;2023-03-26T00:20:11;95592.28;;;7.75;60.91
44751;BME280;30477;48.224;11.470;2023-03-26T00:22:37;95599.09;;;7.76;60.89
44751;BME280;30477;48.224;11.470;2023-03-26T00:25:03;95602.19;;;7.69;60.78
44751;BME280;30477;48.224;11.470;2023-03-26T00:27:29;95593.50;;;7.61;61.03
44751;BME280;30477;48.224;11.470;2023-03-26T00:29:55;95596.50;;;7.56;61.17
44751;BME280;30477;48.224;11.470;2023-03-26T00:32:21;95596.22;;;7.59;61.22
44751;BME280;30477;48.224;11.470;2023-03-26T00:34:46;95600.28;;;7.62;61.39
44751;BME280;30477;48.224;11.470;2023-03-26T00:37:11;95602.56;;;7.55;61.46
44751;BME280;30477;48.224;11.470;2023-03-26T00:39:38;95589.28;;;7.60;61.34
44751;BME280;30477;48.224;11.470;2023-03-26T00:42:03;95595.56;;;7.67;61.50
44751;BME280;30477;48.224;11.470;2023-03-26T00:44:32;95595.56;;;7.67;61.19
44751;BME280;30477;48.224;11.470;2023-03-26T00:46:58;95595.69;;;7.65;61.27
44751;BME280;30477;48.224;11.470;2023-03-26T00:49:24;95588.50;;;7.69;61.63
44751;BME280;30477;48.224;11.470;2023-03-26T00:51:51;95588.50;;;7.69;61.12
44751;BME280;30477;48.224;11.470;2023-03-26T00:54:17;95589.56;;;7.66;61.06
44751;BME280;30477;48.224;11.470;2023-03-26T00:56:42;95586.06;;;7.67;61.32
44751;BME280;30477;48.224;11.470;2023-03-26T00:59:07;95581.19;;;7.64;61.21
44751;BME280;30477;48.224;11.470;2023-03-26T01:01:33;95578.06;;;7.70;61.30
44751;BME280;30477;48.224;11.470;2023-03-26T01:04:20;95580.34;;;7.64;61.21
44751;BME280;30477;48.224;11.470;2023-03-26T01:06:51;95587.56;;;7.60;61.43
44751;BME280;30477;48.224;11.470;2023-03-26T01:09:18;95591.63;;;7.63;61.29
44751;BME280;30477;48.224;11.470;2023-03-26T01:11:45;95597.03;;;7.60;61.42
44751;BME280;30477;48.224;11.470;2023-03-26T01:14:22;95594.59;;;7.58;61.60
44751;BME280;30477;48.224;11.470;2023-03-26T01:17:00;95595.69;;;7.65;61.58
44751;BME280;30477;48.224;11.470;2023-03-26T01:19:31;95593.66;;;7.69;61.43
44751;BME280;30477;48.224;11.470;2023-03-26T01:22:04;95591.34;;;7.56;61.52
44751;BME280;30477;48.224;11.470;2023-03-26T01:24:31;95581.72;;;7.58;61.53
44751;BME280;30477;48.224;11.470;2023-03-26T01:29:52;95579.56;;;7.63;61.52
44751;BME280;30477;48.224;11.470;2023-03-26T01:35:51;95577.50;;;7.57;61.43
44751;BME280;30477;48.224;11.470;2023-03-26T01:38:32;95577.34;;;7.49;61.70
44751;BME280;30477;48.224;11.470;2023-03-26T01:41:07;95568.69;;;7.50;61.84
44751;BME280;30477;48.224;11.470;2023-03-26T01:43:45;95562.03;;;7.47;61.95
44751;BME280;30477;48.224;11.470;2023-03-26T01:46:14;95556.88;;;7.38;61.94
44751;BME280;30477;48.224;11.470;2023-03-26T01:48:42;95557.56;;;7.40;62.03
44751;BME280;30477;48.224;11.470;2023-03-26T01:51:09;95554.72;;;7.33;62.02
44751;BME280;30477;48.224;11.470;2023-03-26T01:53:39;95562.81;;;7.28;62.24
44751;BME280;30477;48.224;11.470;2023-03-26T01:56:30;95562.13;;;7.26;62.38
44751;BME280;30477;48.224;11.470;2023-03-26T02:01:49;95554.16;;;7.29;62.41
44751;BME280;30477;48.224;11.470;2023-03-26T02:04:45;95544.53;;;7.31;62.21
44751;BME280;30477;48.224;11.470;2023-03-26T02:09:48;95542.91;;;7.21;62.28
44751;BME280;30477;48.224;11.470;2023-03-26T02:12:15;95535.28;;;7.19;62.52
44751;BME280;30477;48.224;11.470;2023-03-26T02:14:42;95530.44;;;7.16;62.56
44751;BME280;30477;48.224;11.470;2023-03-26T02:17:08;95531.47;;;7.14;62.58
44751;BME280;30477;48.224;11.470;2023-03-26T02:19:35;95543.13;;;7.18;62.69
44751;BME280;30477;48.224;11.470;2023-03-26T02:22:01;95540.16;;;7.13;62.68
44751;BME280;30477;48.224;11.470;2023-03-26T02:24:26;95540.84;;;7.15;62.67
44751;BME280;30477;48.224;11.470;2023-03-26T02:26:51;95532.44;;;7.13;62.78
44751;BME280;30477;48.224;11.470;2023-03-26T02:29:17;95530.44;;;7.16;62.83
44751;BME280;30477;48.224;11.470;2023-03-26T02:31:43;95531.34;;;7.15;62.65
44751;BME280;30477;48.224;11.470;2023-03-26T02:34:08;95533.25;;;7.13;62.78
44751;BME280;30477;48.224;11.470;2023-03-26T02:36:34;95524.44;;;7.16;62.96
44751;BME280;30477;48.224;11.470;2023-03-26T02:38:59;95522.72;;;7.16;62.79
44751;BME280;30477;48.224;11.470;2023-03-26T02:41:25;95519.16;;;7.17;62.95
44751;BME280;30477;48.224;11.470;2023-03-26T02:43:50;95515.91;;;7.15;62.27
44751;BME280;30477;48.224;11.470;2023-03-26T02:46:15;95508.47;;;7.12;62.73
44751;BME280;30477;48.224;11.470;2023-03-26T02:48:41;95510.88;;;7.14;62.86
44751;BME280;30477;48.224;11.470;2023-03-26T02:51:06;95516.44;;;7.09;62.76
44751;BME280;30477;48.224;11.470;2023-03-26T02:53:32;95511.13;;;7.01;63.20
44751;BME280;30477;48.224;11.470;2023-03-26T02:55:58;95497.34;;;7.02;63.04
44751;BME280;30477;48.224;11.470;2023-03-26T02:58:25;95492.88;;;7.04;63.10
44751;BME280;30477;48.224;11.470;2023-03-26T03:00:51;95498.19;;;7.12;63.21
44751;BME280;30477;48.224;11.470;2023-03-26T03:03:22;95490.03;;;7.07;63.08
44751;BME280;30477;48.224;11.470;2023-03-26T03:05:52;95485.97;;;7.04;62.99
44751;BME280;30477;48.224;11.470;2023-03-26T03:08:22;95478.66;;;7.00;63.17
44751;BME280;30477;48.224;11.470;2023-03-26T03:11:03;95482.72;;;7.02;63.03
44751;BME280;30477;48.224;11.470;2023-03-26T03:13:31;95468.19;;;6.91;63.22
44751;BME280;30477;48.224;11.470;2023-03-26T03:15:57;95468.28;;;6.80;63.65
44751;BME280;30477;48.224;11.470;2023-03-26T03:18:22;95465.31;;;6.75;63.71
44751;BME280;30477;48.224;11.470;2023-03-26T03:20:47;95457.47;;;6.77;63.90
44751;BME280;30477;48.224;11.470;2023-03-26T03:23:14;95452.31;;;6.77;64.01
44751;BME280;30477;48.224;11.470;2023-03-26T03:25:39;95452.84;;;6.80;63.90
44751;BME280;30477;48.224;11.470;2023-03-26T03:28:05;95448.56;;;6.81;63.95
44751;BME280;30477;48.224;11.470;2023-03-26T03:30:31;95443.94;;;6.84;63.89
44751;BME280;30477;48.224;11.470;2023-03-26T03:32:56;95440.16;;;6.88;63.62
44751;BME280;30477;48.224;11.470;2023-03-26T03:35:26;95436.78;;;6.88;63.75
44751;BME280;30477;48.224;11.470;2023-03-26T03:37:52;95439.34;;;6.88;63.70
44751;BME280;30477;48.224;11.470;2023-03-26T03:40:18;95436.66;;;6.89;63.85
44751;BME280;30477;48.224;11.470;2023-03-26T03:42:44;95435.00;;;6.88;63.62
44751;BME280;30477;48.224;11.470;2023-03-26T03:45:10;95438.78;;;6.84;63.51
44751;BME280;30477;48.224;11.470;2023-03-26T03:47:35;95438.78;;;6.84;63.92
44751;BME280;30477;48.224;11.470;2023-03-26T03:50:01;95430.09;;;6.76;63.81
44751;BME280;30477;48.224;11.470;2023-03-26T03:52:26;95436.63;;;6.70;63.89
44751;BME280;30477;48.224;11.470;2023-03-26T03:54:53;95439.16;;;6.60;64.05
44751;BME280;30477;48.224;11.470;2023-03-26T03:57:18;95432.06;;;6.53;64.35
44751;BME280;30477;48.224;11.470;2023-03-26T03:59:46;95434.66;;;6.53;64.78
44751;BME280;30477;48.224;11.470;2023-03-26T04:02:12;95430.03;;;6.46;64.86
44751;BME280;30477;48.224;11.470;2023-03-26T04:04:37;95437.38;;;6.51;65.00
44751;BME280;30477;48.224;11.470;2023-03-26T04:07:03;95430.88;;;6.47;64.74
44751;BME280;30477;48.224;11.470;2023-03-26T04:09:29;95422.47;;;6.55;65.15
44751;BME280;30477;48.224;11.470;2023-03-26T04:11:54;95414.16;;;6.72;65.32
44751;BME280;30477;48.224;11.470;2023-03-26T04:14:20;95406.03;;;6.77;65.05
44751;BME280;30477;48.224;11.470;2023-03-26T04:16:45;95400.59;;;6.80;65.07
44751;BME280;30477;48.224;11.470;2023-03-26T04:19:13;95397.63;;;6.75;65.07
44751;BME280;30477;48.224;11.470;2023-03-26T04:21:38;95398.97;;;6.69;65.05
44751;BME280;30477;48.224;11.470;2023-03-26T04:24:07;95399.50;;;6.63;64.93
44751;BME280;30477;48.224;11.470;2023-03-26T04:26:34;95398.81;;;6.61;65.18
44751;BME280;30477;48.224;11.470;2023-03-26T04:29:02;95395.44;;;6.60;64.94
44751;BME280;30477;48.224;11.470;2023-03-26T04:31:28;95397.34;;;6.68;65.19
44751;BME280;30477;48.224;11.470;2023-03-26T04:33:58;95388.72;;;6.79;65.40
44751;BME280;30477;48.224;11.470;2023-03-26T04:36:30;95389.25;;;6.82;65.10
44751;BME280;30477;48.224;11.470;2023-03-26T04:38:56;95381.94;;;6.87;64.99
44751;BME280;30477;48.224;11.470;2023-03-26T04:41:26;95381.66;;;6.90;65.11
44751;BME280;30477;48.224;11.470;2023-03-26T04:43:52;95382.34;;;6.83;64.68
44751;BME280;30477;48.224;11.470;2023-03-26T04:46:19;95381.50;;;6.63;65.27
44751;BME280;30477;48.224;11.470;2023-03-26T04:48:46;95377.84;;;6.56;65.26
44751;BME280;30477;48.224;11.470;2023-03-26T04:51:12;95372.69;;;6.56;65.61
44751;BME280;30477;48.224;11.470;2023-03-26T04:53:44;95375.94;;;6.58;65.59
44751;BME280;30477;48.224;11.470;2023-03-26T04:58:46;95380.81;;;6.61;65.89
44751;BME280;30477;48.224;11.470;2023-03-26T05:01:12;95369.72;;;6.60;65.80
44751;BME280;30477;48.224;11.470;2023-03-26T05:03:37;95367.56;;;6.56;65.62
44751;BME280;30477;48.224;11.470;2023-03-26T05:06:05;95364.03;;;6.57;66.29
44751;BME280;30477;48.224;11.470;2023-03-26T05:08:31;95357.00;;;6.59;66.09
44751;BME280;30477;48.224;11.470;2023-03-26T05:10:56;95359.69;;;6.57;66.17
44751;BME280;30477;48.224;11.470;2023-03-26T05:13:22;95355.66;;;6.64;66.14
44751;BME280;30477;48.224;11.470;2023-03-26T05:15:48;95354.84;;;6.64;66.04
44751;BME280;30477;48.224;11.470;2023-03-26T05:18:14;95343.59;;;6.65;66.30
44751;BME280;30477;48.224;11.470;2023-03-26T05:20:40;95340.75;;;6.58;66.27
44751;BME280;30477;48.224;11.470;2023-03-26T05:23:06;95336.94;;;6.53;66.35
44751;BME280;30477;48.224;11.470;2023-03-26T05:25:32;95347.78;;;6.46;66.42
44751;BME280;30477;48.224;11.470;2023-03-26T05:27:59;95345.34;;;6.45;66.43
44751;BME280;30477;48.224;11.470;2023-03-26T05:30:24;95334.22;;;6.44;66.93
44751;BME280;30477;48.224;11.470;2023-03-26T05:32:50;95328.72;;;6.59;66.86
44751;BME280;30477;48.224;11.470;2023-03-26T05:35:16;95324.25;;;6.61;66.82
44751;BME280;30477;48.224;11.470;2023-03-26T05:37:42;95322.78;;;6.68;66.92
44751;BME280;30477;48.224;11.470;2023-03-26T05:40:09;95325.47;;;6.66;66.78
44751;BME280;30477;48.224;11.470;2023-03-26T05:42:37;95321.28;;;6.75;66.75
44751;BME280;30477;48.224;11.470;2023-03-26T05:45:04;95314.25;;;6.77;66.78
44751;BME280;30477;48.224;11.470;2023-03-26T05:47:29;95310.19;;;6.84;66.91
44751;BME280;30477;48.224;11.470;2023-03-26T05:49:55;95306.94;;;6.82;66.64
44751;BME280;30477;48.224;11.470;2023-03-26T05:52:21;95304.22;;;6.84;66.63
44751;BME280;30477;48.224;11.470;2023-03-26T05:54:46;95308.81;;;6.80;66.51
44751;BME280;30477;48.224;11.470;2023-03-26T05:57:11;95297.59;;;6.81;66.58
44751;BME280;30477;48.224;11.470;2023-03-26T05:59:37;95296.38;;;6.85;66.60
44751;BME280;30477;48.224;11.470;2023-03-26T06:02:02;95285.97;;;6.87;66.50
44751;BME280;30477;48.224;11.470;2023-03-26T06:04:27;95286.63;;;6.79;66.37
44751;BME280;30477;48.224;11.470;2023-03-26T06:06:53;95290.44;;;6.75;66.39
44751;BME280;30477;48.224;11.470;2023-03-26T06:09:18;95285.28;;;6.75;66.44
44751;BME280;30477;48.224;11.470;2023-03-26T06:11:44;95279.72;;;6.80;66.64
44751;BME280;30477;48.224;11.470;2023-03-26T06:14:09;95269.31;;;6.81;66.63
44751;BME280;30477;48.224;11.470;2023-03-26T06:16:35;95270.91;;;6.82;66.81
44751;BME280;30477;48.224;11.470;2023-03-26T06:19:00;95275.81;;;6.85;66.76
44751;BME280;30477;48.224;11.470;2023-03-26T06:21:26;95280.13;;;6.95;66.60
44751;BME280;30477;48.224;11.470;2023-03-26T06:23:52;95274.31;;;6.93;66.65
44751;BME280;30477;48.224;11.470;2023-03-26T06:26:17;95262.25;;;7.03;66.77
44751;BME280;30477;48.224;11.470;2023-03-26T06:28:42;95255.44;;;7.11;66.79
44751;BME280;30477;48.224;11.470;2023-03-26T06:31:08;95262.63;;;7.18;66.61
44751;BME280;30477;48.224;11.470;2023-03-26T06:33:33;95255.16;;;7.24;66.50
44751;BME280;30477;48.224;11.470;2023-03-26T06:35:58;95267.09;;;7.25;66.56
44751;BME280;30477;48.224;11.470;2023-03-26T06:38:24;95248.66;;;7.30;66.29
44751;BME280;30477;48.224;11.470;2023-03-26T06:40:49;95255.94;;;7.35;66.31
44751;BME280;30477;48.224;11.470;2023-03-26T06:43:15;95250.91;;;7.43;65.96
44751;BME280;30477;48.224;11.470;2023-03-26T06:45:41;95248.06;;;7.46;65.80
44751;BME280;30477;48.224;11.470;2023-03-26T06:48:06;95247.22;;;7.55;65.49
44751;BME280;30477;48.224;11.470;2023-03-26T06:50:32;95244.19;;;7.60;65.01
44751;BME280;30477;48.224;11.470;2023-03-26T06:52:57;95246.75;;;7.69;64.66
44751;BME280;30477;48.224;11.470;2023-03-26T06:55:23;95245.50;;;7.73;64.56
44751;BME280;30477;48.224;11.470;2023-03-26T06:57:50;95241.84;;;7.76;64.10
44751;BME280;30477;48.224;11.470;2023-03-26T07:00:16;95236.09;;;7.82;64.18
44751;BME280;30477;48.224;11.470;2023-03-26T07:02:42;95234.44;;;7.91;63.85
44751;BME280;30477;48.224;11.470;2023-03-26T07:05:07;95235.09;;;7.93;63.75
44751;BME280;30477;48.224;11.470;2023-03-26T07:07:33;95230.75;;;7.93;63.56
44751;BME280;30477;48.224;11.470;2023-03-26T07:09:58;95229.81;;;7.95;63.22
44751;BME280;30477;48.224;11.470;2023-03-26T07:12:24;95226.44;;;7.94;62.77
44751;BME280;30477;48.224;11.470;2023-03-26T07:14:50;95228.72;;;7.97;62.72
44751;BME280;30477;48.224;11.470;2023-03-26T07:17:15;95222.31;;;8.01;62.54
44751;BME280;30477;48.224;11.470;2023-03-26T07:19:40;95228.81;;;8.05;62.52
44751;BME280;30477;48.224;11.470;2023-03-26T07:22:06;95220.94;;;8.07;62.84
44751;BME280;30477;48.224;11.470;2023-03-26T07:24:32;95224.66;;;8.12;62.56
44751;BME280;30477;48.224;11.470;2023-03-26T07:27:05;95212.09;;;8.09;62.19
44751;BME280;30477;48.224;11.470;2023-03-26T07:34:56;95192.13;;;8.11;62.48
44751;BME280;30477;48.224;11.470;2023-03-26T07:37:43;95181.38;;;7.98;62.55
44751;BME280;30477;48.224;11.470;2023-03-26T07:45:44;95174.81;;;7.86;63.73
44751;BME280;30477;48.224;11.470;2023-03-26T07:48:18;95168.56;;;7.88;64.03
44751;BME280;30477;48.224;11.470;2023-03-26T07:50:46;95156.78;;;7.86;64.19
44751;BME280;30477;48.224;11.470;2023-03-26T07:53:13;95152.72;;;7.83;63.94
44751;BME280;30477;48.224;11.470;2023-03-26T07:55:49;95141.03;;;7.89;64.50
44751;BME280;30477;48.224;11.470;2023-03-26T08:01:42;95112.41;;;7.92;64.34
44751;BME280;30477;48.224;11.470;2023-03-26T08:10:27;95104.44;;;8.03;65.20
44751;BME280;30477;48.224;11.470;2023-03-26T08:15:54;95097.00;;;8.00;65.13
44751;BME280;30477;48.224;11.470;2023-03-26T08:18:46;95101.50;;;7.98;64.97
44751;BME280;30477;48.224;11.470;2023-03-26T08:21:18;95097.16;;;7.99;65.07
44751;BME280;30477;48.224;11.470;2023-03-26T08:31:58;95070.34;;;7.91;65.21
44751;BME280;30477;48.224;11.470;2023-03-26T08:34:24;95070.50;;;7.90;65.51
44751;BME280;30477;48.224;11.470;2023-03-26T08:36:50;95065.63;;;7.87;65.55
44751;BME280;30477;48.224;11.470;2023-03-26T08:39:15;95064.97;;;7.85;65.68
44751;BME280;30477;48.224;11.470;2023-03-26T08:48:18;95063.13;;;7.95;65.68
44751;BME280;30477;48.224;11.470;2023-03-26T08:50:38;95074.03;;;8.07;65.45
44751;BME280;30477;48.224;11.470;2023-03-26T08:53:44;95075.63;;;8.08;65.29
44751;BME280;30477;48.224;11.470;2023-03-26T09:02:23;95060.75;;;8.20;65.54
44751;BME280;30477;48.224;11.470;2023-03-26T09:07:53;95058.53;;;8.25;65.90
44751;BME280;30477;48.224;11.470;2023-03-26T09:18:39;95050.31;;;8.21;67.71
44751;BME280;30477;48.224;11.470;2023-03-26T09:53:50;95006.63;;;8.20;69.73
44751;BME280;30477;48.224;11.470;2023-03-26T09:59:12;95018.91;;;8.26;70.07
44751;BME280;30477;48.224;11.470;2023-03-26T10:07:37;95008.59;;;8.26;70.40
44751;BME280;30477;48.224;11.470;2023-03-26T10:10:22;94997.97;;;8.29;70.23
44751;BME280;30477;48.224;11.470;2023-03-26T10:12:56;94986.06;;;8.28;70.10
44751;BME280;30477;48.224;11.470;2023-03-26T10:15:31;94972.06;;;8.30;70.58
44751;BME280;30477;48.224;11.470;2023-03-26T10:18:13;94986.78;;;8.38;70.78
44751;BME280;30477;48.224;11.470;2023-03-26T10:34:55;94982.78;;;8.44;70.67
44751;BME280;30477;48.224;11.470;2023-03-26T10:37:42;95011.03;;;8.53;70.98
44751;BME280;30477;48.224;11.470;2023-03-26T10:40:24;94993.66;;;8.56;70.63
44751;BME280;30477;48.224;11.470;2023-03-26T10:43:41;95000.72;;;8.53;70.52
44751;BME280;30477;48.224;11.470;2023-03-26T10:51:49;95019.44;;;8.56;70.39
44751;BME280;30477;48.224;11.470;2023-03-26T10:54:53;95011.31;;;8.42;70.34
44751;BME280;30477;48.224;11.470;2023-03-26T11:00:32;94986.84;;;8.46;70.91
44751;BME280;30477;48.224;11.470;2023-03-26T11:05:49;94980.72;;;8.47;71.13
44751;BME280;30477;48.224;11.470;2023-03-26T11:11:48;94960.97;;;8.64;70.83
44751;BME280;30477;48.224;11.470;2023-03-26T11:14:20;94950.00;;;8.62;70.72
44751;BME280;30477;48.224;11.470;2023-03-26T11:16:53;94950.03;;;8.70;70.59
44751;BME280;30477;48.224;11.470;2023-03-26T11:19:49;94949.25;;;8.78;70.58
44751;BME280;30477;48.224;11.470;2023-03-26T11:25:38;94966.34;;;8.79;70.33
44751;BME280;30477;48.224;11.470;2023-03-26T11:33:44;94963.31;;;8.92;70.04
44751;BME280;30477;48.224;11.470;2023-03-26T11:36:15;94957.34;;;8.91;69.95
44751;BME280;30477;48.224;11.470;2023-03-26T11:38:46;94963.31;;;8.92;69.63
44751;BME280;30477;48.224;11.470;2023-03-26T11:41:20;94947.16;;;8.82;69.89
44751;BME280;30477;48.224;11.470;2023-03-26T11:43:50;94945.13;;;9.02;69.81
44751;BME280;30477;48.224;11.470;2023-03-26T11:46:19;94947.06;;;9.08;68.91
44751;BME280;30477;48.224;11.470;2023-03-26T11:48:49;94936.13;;;9.14;69.10
44751;BME280;30477;48.224;11.470;2023-03-26T11:51:32;94927.56;;;9.13;68.80
44751;BME280;30477;48.224;11.470;2023-03-26T11:53:59;94931.78;;;9.23;68.34
44751;BME280;30477;48.224;11.470;2023-03-26T11:56:26;94935.50;;;9.37;67.94
44751;BME280;30477;48.224;11.470;2023-03-26T11:58:58;94929.03;;;9.41;67.72
44751;BME280;30477;48.224;11.470;2023-03-26T12:01:27;94930.63;;;9.25;67.17
44751;BME280;30477;48.224;11.470;2023-03-26T12:03:56;94922.72;;;9.19;67.33
44751;BME280;30477;48.224;11.470;2023-03-26T12:06:26;94912.56;;;9.17;67.46
44751;BME280;30477;48.224;11.470;2023-03-26T12:08:53;94927.13;;;9.34;67.64
44751;BME280;30477;48.224;11.470;2023-03-26T12:11:23;94936.78;;;9.57;67.83
44751;BME280;30477;48.224;11.470;2023-03-26T12:13:58;94920.34;;;9.74;67.40
44751;BME280;30477;48.224;11.470;2023-03-26T12:16:25;94930.31;;;9.78;67.34
44751;BME280;30477;48.224;11.470;2023-03-26T12:19:04;94917.41;;;9.78;66.86
44751;BME280;30477;48.224;11.470;2023-03-26T12:21:45;94903.19;;;9.65;66.21
44751;BME280;30477;48.224;11.470;2023-03-26T12:24:32;94908.56;;;9.55;66.51
44751;BME280;30477;48.224;11.470;2023-03-26T12:27:01;94908.72;;;9.62;66.57
44751;BME280;30477;48.224;11.470;2023-03-26T12:29:52;94898.69;;;9.59;66.01
44751;BME280;30477;48.224;11.470;2023-03-26T12:32:24;94906.94;;;9.63;66.51
44751;BME280;30477;48.224;11.470;2023-03-26T12:34:56;94910.66;;;9.52;66.32
44751;BME280;30477;48.224;11.470;2023-03-26T12:37:36;94906.94;;;9.63;66.33
44751;BME280;30477;48.224;11.470;2023-03-26T12:42:54;94909.66;;;9.69;66.29
44751;BME280;30477;48.224;11.470;2023-03-26T12:48:16;94915.63;;;9.70;65.72
44751;BME280;30477;48.224;11.470;2023-03-26T12:56:10;94890.13;;;9.67;66.07
44751;BME280;30477;48.224;11.470;2023-03-26T13:06:51;94887.06;;;9.55;65.62
44751;BME280;30477;48.224;11.470;2023-03-26T13:09:41;94883.19;;;9.59;65.68
44751;BME280;30477;48.224;11.470;2023-03-26T13:13:01;94889.19;;;9.60;65.66
44751;BME280;30477;48.224;11.470;2023-03-26T13:15:15;94875.44;;;9.51;65.79
44751;BME280;30477;48.224;11.470;2023-03-26T13:17:55;94868.03;;;9.56;66.25
44751;BME280;30477;48.224;11.470;2023-03-26T13:31:38;94898.66;;;9.02;65.60
44751;BME280;30477;48.224;11.470;2023-03-26T13:43:26;94870.19;;;8.52;64.23
44751;BME280;30477;48.224;11.470;2023-03-26T13:46:04;94880.81;;;8.49;64.17
44751;BME280;30477;48.224;11.470;2023-03-26T13:51:28;94876.84;;;8.37;64.15
44751;BME280;30477;48.224;11.470;2023-03-26T13:56:29;94905.78;;;8.23;64.11
44751;BME280;30477;48.224;11.470;2023-03-26T13:59:01;94910.75;;;8.16;64.34
44751;BME280;30477;48.224;11.470;2023-03-26T14:01:31;94924.50;;;7.72;64.76
44751;BME280;30477;48.224;11.470;2023-03-26T14:06:55;94923.56;;;6.84;67.08
44751;BME280;30477;48.224;11.470;2023-03-26T14:09:33;94889.63;;;6.80;68.11
44751;BME280;30477;48.224;11.470;2023-03-26T14:14:42;94829.47;;;6.91;69.55
44751;BME280;30477;48.224;11.470;2023-03-26T14:17:20;94840.31;;;7.03;69.39
44751;BME280;30477;48.224;11.470;2023-03-26T14:28:27;94840.63;;;7.44;69.61
44751;BME280;30477;48.224;11.470;2023-03-26T14:31:05;94844.22;;;7.51;69.97
44751;BME280;30477;48.224;11.470;2023-03-26T14:33:49;94838.78;;;7.54;69.62
44751;BME280;30477;48.224;11.470;2023-03-26T14:40:00;94819.31;;;7.60;69.47
44751;BME280;30477;48.224;11.470;2023-03-26T14:47:50;94797.63;;;7.70;69.21
44751;BME280;30477;48.224;11.470;2023-03-26T14:50:38;94795.94;;;7.79;68.92
44751;BME280;30477;48.224;11.470;2023-03-26T14:53:32;94786.94;;;7.83;68.72
44751;BME280;30477;48.224;11.470;2023-03-26T14:58:45;94800.34;;;7.95;68.50
44751;BME280;30477;48.224;11.470;2023-03-26T15:01:47;94801.03;;;8.05;68.34
44751;BME280;30477;48.224;11.470;2023-03-26T15:10:43;94793.97;;;8.16;67.89
44751;BME280;30477;48.224;11.470;2023-03-26T15:16:31;94786.75;;;8.19;67.50
44751;BME280;30477;48.224;11.470;2023-03-26T15:25:28;94769.19;;;8.31;67.08
44751;BME280;30477;48.224;11.470;2023-03-26T15:40:27;94753.78;;;8.47;67.46
44751;BME280;30477;48.224;11.470;2023-03-26T15:43:09;94758.16;;;8.47;67.27
44751;BME280;30477;48.224;11.470;2023-03-26T15:51:36;94765.72;;;8.57;67.16
44751;BME280;30477;48.224;11.470;2023-03-26T15:54:34;94771.53;;;8.59;67.44
44751;BME280;30477;48.224;11.470;2023-03-26T15:57:26;94767.00;;;8.61;67.44
44751;BME280;30477;48.224;11.470;2023-03-26T16:00:24;94753.31;;;8.60;67.04
44751;BME280;30477;48.224;11.470;2023-03-26T16:05:41;94738.03;;;8.50;62.86
44751;BME280;30477;48.224;11.470;2023-03-26T16:09:14;94748.00;;;8.53;62.17
44751;BME280;30477;48.224;11.470;2023-03-26T16:11:56;94761.53;;;8.56;61.68
44751;BME280;30477;48.224;11.470;2023-03-26T16:16:53;94753.81;;;8.64;60.82
44751;BME280;30477;48.224;11.470;2023-03-26T16:22:00;94757.34;;;8.63;59.50
44751;BME280;30477;48.224;11.470;2023-03-26T16:24:29;94760.91;;;8.70;59.57
44751;BME280;30477;48.224;11.470;2023-03-26T16:29:29;94759.47;;;8.67;59.80
44751;BME280;30477;48.224;11.470;2023-03-26T16:37:48;94750.09;;;8.58;60.42
44751;BME280;30477;48.224;11.470;2023-03-26T16:51:26;94726.72;;;8.43;61.75
44751;BME280;30477;48.224;11.470;2023-03-26T16:54:15;94737.19;;;8.42;61.88
44751;BME280;30477;48.224;11.470;2023-03-26T16:57:05;94740.84;;;8.39;62.14
44751;BME280;30477;48.224;11.470;2023-03-26T17:00:27;94743.78;;;8.36;62.50
44751;BME280;30477;48.224;11.470;2023-03-26T17:02:51;94734.59;;;8.42;62.66
44751;BME280;30477;48.224;11.470;2023-03-26T17:05:34;94729.63;;;8.48;62.82
44751;BME280;30477;48.224;11.470;2023-03-26T17:08:08;94733.50;;;8.52;63.12
44751;BME280;30477;48.224;11.470;2023-03-26T17:10:54;94748.34;;;8.50;62.78
44751;BME280;30477;48.224;11.470;2023-03-26T17:16:40;94721.72;;;8.42;63.05
44751;BME280;30477;48.224;11.470;2023-03-26T17:24:26;94733.81;;;8.41;62.45
44751;BME280;30477;48.224;11.470;2023-03-26T17:32:52;94736.38;;;8.41;62.81
44751;BME280;30477;48.224;11.470;2023-03-26T17:35:43;94741.34;;;8.34;62.67
44751;BME280;30477;48.224;11.470;2023-03-26T17:43:46;94762.13;;;8.33;62.79
44751;BME280;30477;48.224;11.470;2023-03-26T17:46:38;94775.00;;;8.33;62.91
44751;BME280;30477;48.224;11.470;2023-03-26T17:54:37;94812.19;;;8.22;63.56
44751;BME280;30477;48.224;11.470;2023-03-26T17:57:25;94824.25;;;8.13;64.29
44751;BME280;30477;48.224;11.470;2023-03-26T17:59:56;94810.78;;;7.93;65.16
44751;BME280;30477;48.224;11.470;2023-03-26T18:02:32;94821.88;;;7.86;65.55
44751;BME280;30477;48.224;11.470;2023-03-26T18:04:59;94819.56;;;7.75;65.78
44751;BME280;30477;48.224;11.470;2023-03-26T18:07:44;94816.97;;;7.75;65.79
44751;BME280;30477;48.224;11.470;2023-03-26T18:15:52;94819.13;;;7.53;65.75
44751;BME280;30477;48.224;11.470;2023-03-26T18:18:36;94816.53;;;7.53;65.42
44751;BME280;30477;48.224;11.470;2023-03-26T18:21:04;94821.69;;;7.53;65.49
44751;BME280;30477;48.224;11.470;2023-03-26T18:23:36;94824.63;;;7.58;65.16
44751;BME280;30477;48.224;11.470;2023-03-26T18:26:11;94831.78;;;7.46;65.09
44751;BME280;30477;48.224;11.470;2023-03-26T18:28:41;94832.34;;;7.32;65.06
44751;BME280;30477;48.224;11.470;2023-03-26T18:31:12;94827.03;;;7.34;65.19
44751;BME280;30477;48.224;11.470;2023-03-26T18:33:46;94826.13;;;7.17;65.13